sensor_id;sensor_type;location;lat;lon;timestamp;temperature;humidity
20174;DHT22;10246;50.620;7.232;2022-08-02T00:01:55;18.70;1.00
20174;DHT22;10246;50.620;7.232;2022-08-02T00:04:21;18.70;1.00
20174;DHT22;10246;50.620;7.232;2022-08-02T00:06:49;18.70;1.00
20174;DHT22;10246;50.620;7.232;2022-08-02T00:09:16;18.60;1.00
20174;DHT22;10246;50.620;7.232;2022-08-02T00:11:43;18.50;1.00
20174;DHT22;10246;50.620;7.232;2022-08-02T00:14:10;18.50;1.00
20174;DHT22;10246;50.620;7.232;2022-08-02T00:16:36;18.50;1.00
20174;DHT22;10246;50.620;7.232;2022-08-02T00:19:03;18.50;1.00
20174;DHT22;10246;50.620;7.232;2022-08-02T00:21:31;18.60;1.00
20174;DHT22;10246;50.620;7.232;2022-08-02T00:23:59;18.60;1.00
20174;DHT22;10246;50.620;7.232;2022-08-02T00:26:25;18.60;1.00
20174;DHT22;10246;50.620;7.232;2022-08-02T00:28:52;18.50;1.00
20174;DHT22;10246;50.620;7.232;2022-08-02T00:31:19;18.50;1.00
20174;DHT22;10246;50.620;7.232;2022-08-02T00:33:46;18.50;1.00
20174;DHT22;10246;50.620;7.232;2022-08-02T00:36:13;18.40;1.00
20174;DHT22;10246;50.620;7.232;2022-08-02T00:38:40;18.40;1.00
20174;DHT22;10246;50.620;7.232;2022-08-02T00:41:14;18.50;1.00
20174;DHT22;10246;50.620;7.232;2022-08-02T00:43:41;18.30;1.00
20174;DHT22;10246;50.620;7.232;2022-08-02T00:46:08;18.20;1.00
20174;DHT22;10246;50.620;7.232;2022-08-02T00:48:35;18.20;1.00
20174;DHT22;10246;50.620;7.232;2022-08-02T00:51:02;18.10;1.00
20174;DHT22;10246;50.620;7.232;2022-08-02T00:53:29;18.10;1.00
20174;DHT22;10246;50.620;7.232;2022-08-02T00:55:56;18.00;1.00
20174;DHT22;10246;50.620;7.232;2022-08-02T00:58:24;18.00;1.00
20174;DHT22;10246;50.620;7.232;2022-08-02T01:00:51;18.00;1.00
20174;DHT22;10246;50.620;7.232;2022-08-02T01:03:17;17.90;1.00
20174;DHT22;10246;50.620;7.232;2022-08-02T01:05:44;17.90;1.00
20174;DHT22;10246;50.620;7.232;2022-08-02T01:08:11;17.90;1.00
20174;DHT22;10246;50.620;7.232;2022-08-02T01:10:38;17.90;1.00
20174;DHT22;10246;50.620;7.232;2022-08-02T01:13:05;18.00;1.00
20174;DHT22;10246;50.620;7.232;2022-08-02T01:15:37;18.10;1.00
20174;DHT22;10246;50.620;7.232;2022-08-02T01:18:09;18.10;1.00
20174;DHT22;10246;50.620;7.232;2022-08-02T01:21:12;18.10;1.00
20174;DHT22;10246;50.620;7.232;2022-08-02T01:24:03;18.00;1.00
20174;DHT22;10246;50.620;7.232;2022-08-02T01:26:41;17.90;1.00
20174;DHT22;10246;50.620;7.232;2022-08-02T01:29:12;17.80;1.00
20174;DHT22;10246;50.620;7.232;2022-08-02T01:31:46;17.80;1.00
20174;DHT22;10246;50.620;7.232;2022-08-02T01:34:18;17.70;1.00
20174;DHT22;10246;50.620;7.232;2022-08-02T01:36:51;17.60;1.00
20174;DHT22;10246;50.620;7.232;2022-08-02T01:39:24;17.60;1.00
20174;DHT22;10246;50.620;7.232;2022-08-02T01:41:52;17.60;1.00
20174;DHT22;10246;50.620;7.232;2022-08-02T01:44:24;17.60;1.00
20174;DHT22;10246;50.620;7.232;2022-08-02T01:46:52;17.60;1.00
20174;DHT22;10246;50.620;7.232;2022-08-02T01:49:23;17.50;1.00
20174;DHT22;10246;50.620;7.232;2022-08-02T01:51:52;17.50;1.00
20174;DHT22;10246;50.620;7.232;2022-08-02T01:54:40;17.50;1.00
20174;DHT22;10246;50.620;7.232;2022-08-02T01:57:09;17.50;1.00
20174;DHT22;10246;50.620;7.232;2022-08-02T01:59:39;17.40;1.00
20174;DHT22;10246;50.620;7.232;2022-08-02T02:02:08;17.40;1.00
20174;DHT22;10246;50.620;7.232;2022-08-02T02:04:36;17.40;1.00
20174;DHT22;10246;50.620;7.232;2022-08-02T02:07:04;17.30;1.00
20174;DHT22;10246;50.620;7.232;2022-08-02T02:09:36;17.30;1.00
20174;DHT22;10246;50.620;7.232;2022-08-02T02:12:05;17.30;1.00
20174;DHT22;10246;50.620;7.232;2022-08-02T02:14:33;17.30;1.00
20174;DHT22;10246;50.620;7.232;2022-08-02T02:17:02;17.20;1.00
20174;DHT22;10246;50.620;7.232;2022-08-02T02:19:32;17.20;1.00
20174;DHT22;10246;50.620;7.232;2022-08-02T02:22:01;17.20;1.10
20174;DHT22;10246;50.620;7.232;2022-08-02T02:24:28;17.00;1.10
20174;DHT22;10246;50.620;7.232;2022-08-02T02:26:55;17.00;1.30
20174;DHT22;10246;50.620;7.232;2022-08-02T02:29:24;17.00;1.90
20174;DHT22;10246;50.620;7.232;2022-08-02T02:31:54;16.90;1.90
20174;DHT22;10246;50.620;7.232;2022-08-02T02:34:26;16.90;2.10
20174;DHT22;10246;50.620;7.232;2022-08-02T02:36:55;16.90;2.60
20174;DHT22;10246;50.620;7.232;2022-08-02T02:39:24;16.90;2.00
20174;DHT22;10246;50.620;7.232;2022-08-02T02:41:54;16.90;2.20
20174;DHT22;10246;50.620;7.232;2022-08-02T02:44:22;17.00;2.00
20174;DHT22;10246;50.620;7.232;2022-08-02T02:46:52;17.00;1.40
20174;DHT22;10246;50.620;7.232;2022-08-02T02:49:20;17.00;1.80
20174;DHT22;10246;50.620;7.232;2022-08-02T02:51:50;16.90;2.20
20174;DHT22;10246;50.620;7.232;2022-08-02T02:54:17;17.00;2.30
20174;DHT22;10246;50.620;7.232;2022-08-02T02:56:46;17.00;1.70
20174;DHT22;10246;50.620;7.232;2022-08-02T02:59:13;17.00;1.50
20174;DHT22;10246;50.620;7.232;2022-08-02T03:01:40;17.10;1.80
20174;DHT22;10246;50.620;7.232;2022-08-02T03:04:09;17.00;1.60
20174;DHT22;10246;50.620;7.232;2022-08-02T03:06:37;17.00;1.30
20174;DHT22;10246;50.620;7.232;2022-08-02T03:09:07;17.00;1.10
20174;DHT22;10246;50.620;7.232;2022-08-02T03:11:35;16.90;1.30
20174;DHT22;10246;50.620;7.232;2022-08-02T03:14:03;16.90;1.70
20174;DHT22;10246;50.620;7.232;2022-08-02T03:16:30;16.90;1.90
20174;DHT22;10246;50.620;7.232;2022-08-02T03:19:00;16.80;1.70
20174;DHT22;10246;50.620;7.232;2022-08-02T03:21:27;16.80;1.70
20174;DHT22;10246;50.620;7.232;2022-08-02T03:23:54;16.80;1.70
20174;DHT22;10246;50.620;7.232;2022-08-02T03:26:22;16.70;1.80
20174;DHT22;10246;50.620;7.232;2022-08-02T03:28:49;16.60;2.20
20174;DHT22;10246;50.620;7.232;2022-08-02T03:31:16;16.60;2.20
20174;DHT22;10246;50.620;7.232;2022-08-02T03:33:43;16.70;2.60
20174;DHT22;10246;50.620;7.232;2022-08-02T03:36:13;16.60;2.50
20174;DHT22;10246;50.620;7.232;2022-08-02T03:38:41;16.60;2.40
20174;DHT22;10246;50.620;7.232;2022-08-02T03:41:10;16.60;2.80
20174;DHT22;10246;50.620;7.232;2022-08-02T03:43:39;16.60;2.10
20174;DHT22;10246;50.620;7.232;2022-08-02T03:46:08;16.70;2.30
20174;DHT22;10246;50.620;7.232;2022-08-02T03:48:35;16.60;1.90
20174;DHT22;10246;50.620;7.232;2022-08-02T03:51:04;16.60;1.10
20174;DHT22;10246;50.620;7.232;2022-08-02T03:53:31;16.60;1.50
20174;DHT22;10246;50.620;7.232;2022-08-02T03:55:58;16.70;2.10
20174;DHT22;10246;50.620;7.232;2022-08-02T03:58:26;16.60;2.70
20174;DHT22;10246;50.620;7.232;2022-08-02T04:00:55;16.50;2.20
20174;DHT22;10246;50.620;7.232;2022-08-02T04:03:22;16.50;2.20
20174;DHT22;10246;50.620;7.232;2022-08-02T04:05:49;16.60;2.90
20174;DHT22;10246;50.620;7.232;2022-08-02T04:08:16;16.60;2.40
20174;DHT22;10246;50.620;7.232;2022-08-02T04:10:43;16.50;2.80
20174;DHT22;10246;50.620;7.232;2022-08-02T04:13:30;16.50;2.30
20174;DHT22;10246;50.620;7.232;2022-08-02T04:16:03;16.50;2.30
20174;DHT22;10246;50.620;7.232;2022-08-02T04:18:38;16.60;2.90
20174;DHT22;10246;50.620;7.232;2022-08-02T04:21:05;16.60;2.90
20174;DHT22;10246;50.620;7.232;2022-08-02T04:23:34;16.50;2.80
20174;DHT22;10246;50.620;7.232;2022-08-02T04:26:03;16.40;2.70
20174;DHT22;10246;50.620;7.232;2022-08-02T04:28:31;16.40;2.70
20174;DHT22;10246;50.620;7.232;2022-08-02T04:31:01;16.50;2.80
20174;DHT22;10246;50.620;7.232;2022-08-02T04:33:28;16.40;2.70
20174;DHT22;10246;50.620;7.232;2022-08-02T04:35:56;16.40;2.70
20174;DHT22;10246;50.620;7.232;2022-08-02T04:38:23;16.40;3.30
20174;DHT22;10246;50.620;7.232;2022-08-02T04:40:51;16.40;3.00
20174;DHT22;10246;50.620;7.232;2022-08-02T04:43:18;16.40;3.20
20174;DHT22;10246;50.620;7.232;2022-08-02T04:45:46;16.40;2.80
20174;DHT22;10246;50.620;7.232;2022-08-02T04:48:15;16.40;2.70
20174;DHT22;10246;50.620;7.232;2022-08-02T04:50:41;16.40;3.70
20174;DHT22;10246;50.620;7.232;2022-08-02T04:53:08;16.40;4.00
20174;DHT22;10246;50.620;7.232;2022-08-02T04:55:35;16.30;4.40
20174;DHT22;10246;50.620;7.232;2022-08-02T04:58:02;16.30;4.80
20174;DHT22;10246;50.620;7.232;2022-08-02T05:00:29;16.30;4.80
20174;DHT22;10246;50.620;7.232;2022-08-02T05:02:58;16.30;5.10
20174;DHT22;10246;50.620;7.232;2022-08-02T05:05:26;16.30;4.70
20174;DHT22;10246;50.620;7.232;2022-08-02T05:07:54;16.20;4.80
20174;DHT22;10246;50.620;7.232;2022-08-02T05:10:21;16.10;5.20
20174;DHT22;10246;50.620;7.232;2022-08-02T05:12:48;16.20;5.80
20174;DHT22;10246;50.620;7.232;2022-08-02T05:15:15;16.20;5.60
20174;DHT22;10246;50.620;7.232;2022-08-02T05:17:43;16.30;5.50
20174;DHT22;10246;50.620;7.232;2022-08-02T05:20:10;16.40;5.60
20174;DHT22;10246;50.620;7.232;2022-08-02T05:22:40;16.50;5.60
20174;DHT22;10246;50.620;7.232;2022-08-02T05:25:08;16.60;5.90
20174;DHT22;10246;50.620;7.232;2022-08-02T05:27:35;16.60;5.80
20174;DHT22;10246;50.620;7.232;2022-08-02T05:30:03;16.60;6.50
20174;DHT22;10246;50.620;7.232;2022-08-02T05:32:29;16.60;6.60
20174;DHT22;10246;50.620;7.232;2022-08-02T05:34:56;16.60;6.80
20174;DHT22;10246;50.620;7.232;2022-08-02T05:37:23;16.60;7.20
20174;DHT22;10246;50.620;7.232;2022-08-02T05:39:51;16.60;7.30
20174;DHT22;10246;50.620;7.232;2022-08-02T05:42:18;16.60;7.20
20174;DHT22;10246;50.620;7.232;2022-08-02T05:44:44;16.70;7.00
20174;DHT22;10246;50.620;7.232;2022-08-02T05:47:11;16.70;7.10
20174;DHT22;10246;50.620;7.232;2022-08-02T05:49:38;16.80;7.00
20174;DHT22;10246;50.620;7.232;2022-08-02T05:52:09;17.00;6.90
20174;DHT22;10246;50.620;7.232;2022-08-02T05:54:46;17.10;6.60
20174;DHT22;10246;50.620;7.232;2022-08-02T05:57:26;17.20;6.10
20174;DHT22;10246;50.620;7.232;2022-08-02T06:00:03;17.30;5.70
20174;DHT22;10246;50.620;7.232;2022-08-02T06:02:43;17.30;5.70
20174;DHT22;10246;50.620;7.232;2022-08-02T06:05:13;17.40;5.70
20174;DHT22;10246;50.620;7.232;2022-08-02T06:07:41;17.50;5.60
20174;DHT22;10246;50.620;7.232;2022-08-02T06:10:09;17.60;5.50
20174;DHT22;10246;50.620;7.232;2022-08-02T06:12:43;17.70;5.10
20174;DHT22;10246;50.620;7.232;2022-08-02T06:15:13;17.80;4.70
20174;DHT22;10246;50.620;7.232;2022-08-02T06:17:40;17.90;4.60
20174;DHT22;10246;50.620;7.232;2022-08-02T06:20:10;18.00;4.60
20174;DHT22;10246;50.620;7.232;2022-08-02T06:22:39;18.10;3.80
20174;DHT22;10246;50.620;7.232;2022-08-02T06:25:07;18.20;3.90
20174;DHT22;10246;50.620;7.232;2022-08-02T06:27:34;18.30;3.40
20174;DHT22;10246;50.620;7.232;2022-08-02T06:30:05;18.50;2.70
20174;DHT22;10246;50.620;7.232;2022-08-02T06:32:32;18.60;2.50
20174;DHT22;10246;50.620;7.232;2022-08-02T06:34:59;18.60;2.40
20174;DHT22;10246;50.620;7.232;2022-08-02T06:37:30;18.70;2.20
20174;DHT22;10246;50.620;7.232;2022-08-02T06:40:03;18.70;1.80
20174;DHT22;10246;50.620;7.232;2022-08-02T06:42:43;18.70;1.60
20174;DHT22;10246;50.620;7.232;2022-08-02T06:45:11;18.80;1.20
20174;DHT22;10246;50.620;7.232;2022-08-02T06:47:38;18.90;1.00
20174;DHT22;10246;50.620;7.232;2022-08-02T06:50:05;19.00;1.00
20174;DHT22;10246;50.620;7.232;2022-08-02T06:52:32;19.20;1.00
20174;DHT22;10246;50.620;7.232;2022-08-02T06:55:02;19.30;1.00
20174;DHT22;10246;50.620;7.232;2022-08-02T06:57:30;19.50;1.00
20174;DHT22;10246;50.620;7.232;2022-08-02T06:59:57;19.60;1.00
20174;DHT22;10246;50.620;7.232;2022-08-02T07:02:27;19.80;1.00
20174;DHT22;10246;50.620;7.232;2022-08-02T07:04:54;19.90;1.00
20174;DHT22;10246;50.620;7.232;2022-08-02T07:07:21;20.10;1.00
20174;DHT22;10246;50.620;7.232;2022-08-02T07:09:48;20.30;1.00
20174;DHT22;10246;50.620;7.232;2022-08-02T07:12:15;20.40;1.00
20174;DHT22;10246;50.620;7.232;2022-08-02T07:14:42;20.50;1.00
20174;DHT22;10246;50.620;7.232;2022-08-02T07:17:09;20.70;1.00
20174;DHT22;10246;50.620;7.232;2022-08-02T07:19:37;20.90;1.00
20174;DHT22;10246;50.620;7.232;2022-08-02T07:22:04;21.00;1.00
20174;DHT22;10246;50.620;7.232;2022-08-02T07:24:31;21.20;1.00
20174;DHT22;10246;50.620;7.232;2022-08-02T07:26:57;21.50;1.00
20174;DHT22;10246;50.620;7.232;2022-08-02T07:29:24;21.60;1.00
20174;DHT22;10246;50.620;7.232;2022-08-02T07:31:51;21.70;1.00
20174;DHT22;10246;50.620;7.232;2022-08-02T07:34:17;21.90;1.00
20174;DHT22;10246;50.620;7.232;2022-08-02T07:36:45;22.00;1.00
20174;DHT22;10246;50.620;7.232;2022-08-02T07:39:12;22.20;1.00
20174;DHT22;10246;50.620;7.232;2022-08-02T07:41:39;22.30;1.00
20174;DHT22;10246;50.620;7.232;2022-08-02T07:44:06;22.50;1.00
20174;DHT22;10246;50.620;7.232;2022-08-02T07:46:32;22.60;1.00
20174;DHT22;10246;50.620;7.232;2022-08-02T07:48:59;22.70;1.00
20174;DHT22;10246;50.620;7.232;2022-08-02T07:51:26;22.90;1.00
20174;DHT22;10246;50.620;7.232;2022-08-02T07:53:54;23.10;1.00
20174;DHT22;10246;50.620;7.232;2022-08-02T07:56:21;23.20;1.00
20174;DHT22;10246;50.620;7.232;2022-08-02T07:58:47;23.40;1.00
20174;DHT22;10246;50.620;7.232;2022-08-02T08:01:14;23.60;1.00
20174;DHT22;10246;50.620;7.232;2022-08-02T08:03:41;23.70;1.00
20174;DHT22;10246;50.620;7.232;2022-08-02T08:06:08;23.80;1.00
20174;DHT22;10246;50.620;7.232;2022-08-02T08:08:34;23.90;1.00
20174;DHT22;10246;50.620;7.232;2022-08-02T08:11:02;24.10;1.00
20174;DHT22;10246;50.620;7.232;2022-08-02T08:13:29;24.20;1.00
20174;DHT22;10246;50.620;7.232;2022-08-02T08:15:56;24.20;1.00
20174;DHT22;10246;50.620;7.232;2022-08-02T08:18:22;24.20;1.00
20174;DHT22;10246;50.620;7.232;2022-08-02T08:20:49;24.40;1.00
20174;DHT22;10246;50.620;7.232;2022-08-02T08:23:16;24.50;1.00
20174;DHT22;10246;50.620;7.232;2022-08-02T08:25:43;24.70;1.00
20174;DHT22;10246;50.620;7.232;2022-08-02T08:28:11;24.80;1.00
20174;DHT22;10246;50.620;7.232;2022-08-02T08:30:39;24.90;1.00
20174;DHT22;10246;50.620;7.232;2022-08-02T08:33:06;24.90;1.00
20174;DHT22;10246;50.620;7.232;2022-08-02T08:35:33;24.90;1.00
20174;DHT22;10246;50.620;7.232;2022-08-02T08:38:00;25.00;1.00
20174;DHT22;10246;50.620;7.232;2022-08-02T08:40:27;25.20;1.00
20174;DHT22;10246;50.620;7.232;2022-08-02T08:42:54;25.30;1.00
20174;DHT22;10246;50.620;7.232;2022-08-02T08:45:22;25.50;1.00
20174;DHT22;10246;50.620;7.232;2022-08-02T08:47:51;25.50;1.00
20174;DHT22;10246;50.620;7.232;2022-08-02T08:50:20;25.60;1.00
20174;DHT22;10246;50.620;7.232;2022-08-02T08:52:48;25.80;1.00
20174;DHT22;10246;50.620;7.232;2022-08-02T08:55:21;26.00;1.00
20174;DHT22;10246;50.620;7.232;2022-08-02T08:57:49;26.10;1.00
20174;DHT22;10246;50.620;7.232;2022-08-02T09:00:16;26.10;1.00
20174;DHT22;10246;50.620;7.232;2022-08-02T09:02:45;26.20;1.00
20174;DHT22;10246;50.620;7.232;2022-08-02T09:05:13;26.30;1.00
20174;DHT22;10246;50.620;7.232;2022-08-02T09:07:41;26.50;1.00
20174;DHT22;10246;50.620;7.232;2022-08-02T09:10:35;26.50;1.00
20174;DHT22;10246;50.620;7.232;2022-08-02T09:13:07;26.70;1.00
20174;DHT22;10246;50.620;7.232;2022-08-02T09:15:34;26.70;1.00
20174;DHT22;10246;50.620;7.232;2022-08-02T09:18:03;26.80;1.00
20174;DHT22;10246;50.620;7.232;2022-08-02T09:20:30;27.00;1.00
20174;DHT22;10246;50.620;7.232;2022-08-02T09:23:09;27.00;1.00
20174;DHT22;10246;50.620;7.232;2022-08-02T09:25:37;27.20;1.00
20174;DHT22;10246;50.620;7.232;2022-08-02T09:28:04;27.20;1.00
20174;DHT22;10246;50.620;7.232;2022-08-02T09:30:32;27.30;1.00
20174;DHT22;10246;50.620;7.232;2022-08-02T09:32:58;27.20;1.00
20174;DHT22;10246;50.620;7.232;2022-08-02T09:35:34;27.30;1.00
20174;DHT22;10246;50.620;7.232;2022-08-02T09:38:09;27.50;1.00
20174;DHT22;10246;50.620;7.232;2022-08-02T09:40:36;27.50;1.00
20174;DHT22;10246;50.620;7.232;2022-08-02T09:43:03;27.60;1.00
20174;DHT22;10246;50.620;7.232;2022-08-02T09:45:31;27.30;1.00
20174;DHT22;10246;50.620;7.232;2022-08-02T09:48:00;27.50;1.00
20174;DHT22;10246;50.620;7.232;2022-08-02T09:50:27;27.70;1.00
20174;DHT22;10246;50.620;7.232;2022-08-02T09:52:55;27.80;1.00
20174;DHT22;10246;50.620;7.232;2022-08-02T09:55:23;28.00;1.00
20174;DHT22;10246;50.620;7.232;2022-08-02T09:57:50;28.30;1.00
20174;DHT22;10246;50.620;7.232;2022-08-02T10:00:17;28.20;1.00
20174;DHT22;10246;50.620;7.232;2022-08-02T10:03:06;28.20;1.00
20174;DHT22;10246;50.620;7.232;2022-08-02T10:05:52;28.30;1.00
20174;DHT22;10246;50.620;7.232;2022-08-02T10:08:21;28.70;1.00
20174;DHT22;10246;50.620;7.232;2022-08-02T10:10:48;28.80;1.00
20174;DHT22;10246;50.620;7.232;2022-08-02T10:13:26;28.90;1.00
20174;DHT22;10246;50.620;7.232;2022-08-02T10:15:53;29.00;1.00
20174;DHT22;10246;50.620;7.232;2022-08-02T10:18:20;29.00;1.00
20174;DHT22;10246;50.620;7.232;2022-08-02T10:20:49;29.00;1.00
20174;DHT22;10246;50.620;7.232;2022-08-02T10:23:20;29.20;1.00
20174;DHT22;10246;50.620;7.232;2022-08-02T10:25:47;29.20;1.00
20174;DHT22;10246;50.620;7.232;2022-08-02T10:28:17;29.10;1.00
20174;DHT22;10246;50.620;7.232;2022-08-02T10:30:46;29.10;1.00
20174;DHT22;10246;50.620;7.232;2022-08-02T10:33:16;29.10;1.00
20174;DHT22;10246;50.620;7.232;2022-08-02T10:35:45;28.80;1.00
20174;DHT22;10246;50.620;7.232;2022-08-02T10:38:15;28.90;1.00
20174;DHT22;10246;50.620;7.232;2022-08-02T10:40:49;29.20;1.00
20174;DHT22;10246;50.620;7.232;2022-08-02T10:43:43;29.50;1.00
20174;DHT22;10246;50.620;7.232;2022-08-02T10:46:32;29.90;1.00
20174;DHT22;10246;50.620;7.232;2022-08-02T10:49:01;29.90;1.00
20174;DHT22;10246;50.620;7.232;2022-08-02T10:51:56;29.80;1.00
20174;DHT22;10246;50.620;7.232;2022-08-02T10:54:24;29.80;1.00
20174;DHT22;10246;50.620;7.232;2022-08-02T10:56:54;29.80;1.00
20174;DHT22;10246;50.620;7.232;2022-08-02T10:59:26;29.80;1.00
20174;DHT22;10246;50.620;7.232;2022-08-02T11:01:53;29.90;1.00
20174;DHT22;10246;50.620;7.232;2022-08-02T11:04:28;29.90;1.00
20174;DHT22;10246;50.620;7.232;2022-08-02T11:07:08;29.90;1.00
20174;DHT22;10246;50.620;7.232;2022-08-02T11:09:36;30.10;1.00
20174;DHT22;10246;50.620;7.232;2022-08-02T11:12:06;30.00;1.00
20174;DHT22;10246;50.620;7.232;2022-08-02T11:14:34;30.20;1.00
20174;DHT22;10246;50.620;7.232;2022-08-02T11:17:09;30.20;1.00
20174;DHT22;10246;50.620;7.232;2022-08-02T11:22:36;30.70;1.00
20174;DHT22;10246;50.620;7.232;2022-08-02T11:25:30;30.70;1.00
20174;DHT22;10246;50.620;7.232;2022-08-02T11:28:06;30.70;1.00
20174;DHT22;10246;50.620;7.232;2022-08-02T11:30:33;30.50;1.00
20174;DHT22;10246;50.620;7.232;2022-08-02T11:33:00;30.50;1.00
20174;DHT22;10246;50.620;7.232;2022-08-02T11:35:31;30.70;1.00
20174;DHT22;10246;50.620;7.232;2022-08-02T11:38:12;30.80;1.00
20174;DHT22;10246;50.620;7.232;2022-08-02T11:40:39;31.00;1.00
20174;DHT22;10246;50.620;7.232;2022-08-02T11:43:17;31.20;1.00
20174;DHT22;10246;50.620;7.232;2022-08-02T11:45:44;31.10;1.00
20174;DHT22;10246;50.620;7.232;2022-08-02T11:48:11;31.10;1.00
20174;DHT22;10246;50.620;7.232;2022-08-02T11:50:38;31.10;1.00
20174;DHT22;10246;50.620;7.232;2022-08-02T11:53:12;31.40;1.00
20174;DHT22;10246;50.620;7.232;2022-08-02T11:55:40;31.70;1.00
20174;DHT22;10246;50.620;7.232;2022-08-02T11:58:07;32.00;1.00
20174;DHT22;10246;50.620;7.232;2022-08-02T12:00:37;31.90;1.00
20174;DHT22;10246;50.620;7.232;2022-08-02T12:03:05;31.70;1.00
20174;DHT22;10246;50.620;7.232;2022-08-02T12:05:32;31.70;1.00
20174;DHT22;10246;50.620;7.232;2022-08-02T12:07:59;31.90;1.00
20174;DHT22;10246;50.620;7.232;2022-08-02T12:10:26;32.20;1.00
20174;DHT22;10246;50.620;7.232;2022-08-02T12:12:54;32.40;1.00
20174;DHT22;10246;50.620;7.232;2022-08-02T12:15:32;32.30;1.00
20174;DHT22;10246;50.620;7.232;2022-08-02T12:18:00;32.20;1.00
20174;DHT22;10246;50.620;7.232;2022-08-02T12:20:45;32.10;1.00
20174;DHT22;10246;50.620;7.232;2022-08-02T12:23:12;32.00;1.00
20174;DHT22;10246;50.620;7.232;2022-08-02T12:25:39;31.90;1.00
20174;DHT22;10246;50.620;7.232;2022-08-02T12:28:14;31.70;1.00
20174;DHT22;10246;50.620;7.232;2022-08-02T12:30:49;31.60;1.00
20174;DHT22;10246;50.620;7.232;2022-08-02T12:33:17;31.60;1.00
20174;DHT22;10246;50.620;7.232;2022-08-02T12:35:44;31.70;1.00
20174;DHT22;10246;50.620;7.232;2022-08-02T12:38:12;31.90;1.00
20174;DHT22;10246;50.620;7.232;2022-08-02T12:40:39;32.30;1.00
20174;DHT22;10246;50.620;7.232;2022-08-02T12:43:14;32.20;1.00
20174;DHT22;10246;50.620;7.232;2022-08-02T12:45:46;32.20;1.00
20174;DHT22;10246;50.620;7.232;2022-08-02T12:48:14;32.20;1.00
20174;DHT22;10246;50.620;7.232;2022-08-02T12:50:43;32.00;1.00
20174;DHT22;10246;50.620;7.232;2022-08-02T12:53:13;31.70;1.00
20174;DHT22;10246;50.620;7.232;2022-08-02T12:55:48;31.10;1.00
20174;DHT22;10246;50.620;7.232;2022-08-02T12:58:15;31.30;1.00
20174;DHT22;10246;50.620;7.232;2022-08-02T13:00:42;31.40;1.00
20174;DHT22;10246;50.620;7.232;2022-08-02T13:03:11;31.60;1.00
20174;DHT22;10246;50.620;7.232;2022-08-02T13:05:38;31.80;1.00
20174;DHT22;10246;50.620;7.232;2022-08-02T13:08:06;31.90;1.00
20174;DHT22;10246;50.620;7.232;2022-08-02T13:10:32;32.10;1.00
20174;DHT22;10246;50.620;7.232;2022-08-02T13:12:59;32.20;1.00
20174;DHT22;10246;50.620;7.232;2022-08-02T13:15:27;32.30;1.00
20174;DHT22;10246;50.620;7.232;2022-08-02T13:17:54;32.30;1.00
20174;DHT22;10246;50.620;7.232;2022-08-02T13:20:23;32.10;1.00
20174;DHT22;10246;50.620;7.232;2022-08-02T13:22:51;32.10;1.00
20174;DHT22;10246;50.620;7.232;2022-08-02T13:25:20;32.00;1.00
20174;DHT22;10246;50.620;7.232;2022-08-02T13:27:47;32.00;1.00
20174;DHT22;10246;50.620;7.232;2022-08-02T13:30:14;32.10;1.00
20174;DHT22;10246;50.620;7.232;2022-08-02T13:32:41;32.10;1.00
20174;DHT22;10246;50.620;7.232;2022-08-02T13:35:08;32.30;1.00
20174;DHT22;10246;50.620;7.232;2022-08-02T13:37:35;32.20;1.00
20174;DHT22;10246;50.620;7.232;2022-08-02T13:40:03;32.00;1.00
20174;DHT22;10246;50.620;7.232;2022-08-02T13:42:31;32.10;1.00
20174;DHT22;10246;50.620;7.232;2022-08-02T13:44:58;32.10;1.00
20174;DHT22;10246;50.620;7.232;2022-08-02T13:47:25;31.80;1.00
20174;DHT22;10246;50.620;7.232;2022-08-02T13:49:52;31.60;1.00
20174;DHT22;10246;50.620;7.232;2022-08-02T13:52:18;31.70;1.00
20174;DHT22;10246;50.620;7.232;2022-08-02T13:54:45;31.90;1.00
20174;DHT22;10246;50.620;7.232;2022-08-02T13:57:12;32.20;1.00
20174;DHT22;10246;50.620;7.232;2022-08-02T13:59:40;32.30;1.00
20174;DHT22;10246;50.620;7.232;2022-08-02T14:02:07;32.20;1.00
20174;DHT22;10246;50.620;7.232;2022-08-02T14:04:33;32.30;1.00
20174;DHT22;10246;50.620;7.232;2022-08-02T14:07:01;32.40;1.00
20174;DHT22;10246;50.620;7.232;2022-08-02T14:09:27;32.20;1.00
20174;DHT22;10246;50.620;7.232;2022-08-02T14:11:56;32.00;1.00
20174;DHT22;10246;50.620;7.232;2022-08-02T14:14:23;31.90;1.00
20174;DHT22;10246;50.620;7.232;2022-08-02T14:16:51;32.10;1.00
20174;DHT22;10246;50.620;7.232;2022-08-02T14:19:18;32.10;1.00
20174;DHT22;10246;50.620;7.232;2022-08-02T14:21:46;32.10;1.00
20174;DHT22;10246;50.620;7.232;2022-08-02T14:24:13;32.30;1.00
20174;DHT22;10246;50.620;7.232;2022-08-02T14:26:40;32.40;1.00
20174;DHT22;10246;50.620;7.232;2022-08-02T14:29:06;32.30;1.00
20174;DHT22;10246;50.620;7.232;2022-08-02T14:31:33;32.40;1.00
20174;DHT22;10246;50.620;7.232;2022-08-02T14:34:01;32.30;1.00
20174;DHT22;10246;50.620;7.232;2022-08-02T14:36:28;32.60;1.00
20174;DHT22;10246;50.620;7.232;2022-08-02T14:38:55;32.60;1.00
20174;DHT22;10246;50.620;7.232;2022-08-02T14:41:22;32.80;1.00
20174;DHT22;10246;50.620;7.232;2022-08-02T14:43:49;33.20;1.00
20174;DHT22;10246;50.620;7.232;2022-08-02T14:46:30;33.40;1.00
20174;DHT22;10246;50.620;7.232;2022-08-02T14:48:57;33.70;1.00
20174;DHT22;10246;50.620;7.232;2022-08-02T14:51:27;33.70;1.00
20174;DHT22;10246;50.620;7.232;2022-08-02T14:53:54;34.00;1.00
20174;DHT22;10246;50.620;7.232;2022-08-02T14:56:21;34.00;1.00
20174;DHT22;10246;50.620;7.232;2022-08-02T14:58:47;34.00;1.00
20174;DHT22;10246;50.620;7.232;2022-08-02T15:01:14;33.80;1.00
20174;DHT22;10246;50.620;7.232;2022-08-02T15:03:41;33.50;1.00
20174;DHT22;10246;50.620;7.232;2022-08-02T15:06:07;33.30;1.00
20174;DHT22;10246;50.620;7.232;2022-08-02T15:08:36;33.30;1.00
20174;DHT22;10246;50.620;7.232;2022-08-02T15:11:03;33.50;1.00
20174;DHT22;10246;50.620;7.232;2022-08-02T15:13:29;33.50;1.00
20174;DHT22;10246;50.620;7.232;2022-08-02T15:15:56;33.60;1.00
20174;DHT22;10246;50.620;7.232;2022-08-02T15:18:23;33.40;1.00
20174;DHT22;10246;50.620;7.232;2022-08-02T15:20:50;33.30;1.00
20174;DHT22;10246;50.620;7.232;2022-08-02T15:23:16;33.20;1.00
20174;DHT22;10246;50.620;7.232;2022-08-02T15:25:44;33.30;1.00
20174;DHT22;10246;50.620;7.232;2022-08-02T15:28:11;33.30;1.00
20174;DHT22;10246;50.620;7.232;2022-08-02T15:30:38;33.20;1.00
20174;DHT22;10246;50.620;7.232;2022-08-02T15:33:05;33.20;1.00
20174;DHT22;10246;50.620;7.232;2022-08-02T15:35:32;33.60;1.00
20174;DHT22;10246;50.620;7.232;2022-08-02T15:37:59;33.50;1.00
20174;DHT22;10246;50.620;7.232;2022-08-02T15:40:25;33.50;1.00
20174;DHT22;10246;50.620;7.232;2022-08-02T15:42:54;33.50;1.00
20174;DHT22;10246;50.620;7.232;2022-08-02T15:45:20;33.60;1.00
20174;DHT22;10246;50.620;7.232;2022-08-02T15:47:49;33.80;1.00
20174;DHT22;10246;50.620;7.232;2022-08-02T15:50:15;33.80;1.00
20174;DHT22;10246;50.620;7.232;2022-08-02T15:52:42;33.70;1.00
20174;DHT22;10246;50.620;7.232;2022-08-02T15:55:16;33.70;1.00
20174;DHT22;10246;50.620;7.232;2022-08-02T15:57:43;33.60;1.00
20174;DHT22;10246;50.620;7.232;2022-08-02T16:00:12;33.50;1.00